Time;durP1;ratioP1;P1;durP2;ratioP2;P2;SDS_P1;SDS_P2;PMS_P1;PMS_P2;Temp;Humidity;BMP_temperature;BMP_pressure;BME280_temperature;BME280_humidity;BME280_pressure;Samples;Min_cycle;Max_cycle;Signal;HPM_P1;HPM_P2
2023/01/23 00:02:05;;;;;;;;;;;;;;;;;;5114034;28;19961;-72
2023/01/23 00:04:31;;;;;;;;;;;;;;;;;;5115149;28;19973;-72
2023/01/23 00:06:57;;;;;;;;;;;;;;;;;;5116494;28;19959;-72
2023/01/23 00:09:23;;;;;;;;;;;;;;;;;;5116874;28;20038;-72
2023/01/23 00:11:49;;;;;;;;;;;;;;;;;;5118008;28;19908;-72
2023/01/23 00:14:15;;;;;;;;;;;;;;;;;;5117616;28;19907;-72
2023/01/23 00:16:41;;;;;;;;;;;;;;;;;;5116658;28;19976;-72
2023/01/23 00:19:07;;;;;;;;;;;;;;;;;;5118263;28;19908;-72
2023/01/23 00:21:33;;;;;;;;;;;;;;;;;;5117509;28;19930;-72
2023/01/23 00:24:00;;;;;;;;;;;;;;;;;;5117782;28;19952;-72
2023/01/23 00:26:26;;;;;;;;;;;;;;;;;;5117817;28;20383;-72
2023/01/23 00:28:52;;;;;;;;;;;;;;;;;;5117364;28;19961;-72
2023/01/23 00:31:18;;;;;;;;;;;;;;;;;;5116431;28;19916;-72
2023/01/23 00:33:44;;;;;;;;;;;;;;;;;;5116450;28;19908;-72
2023/01/23 00:36:10;;;;;;;;;;;;;;;;;;5117175;28;19998;-72
2023/01/23 00:38:35;;;;;;;;;;;;;;;;;;5117647;28;20412;-72
2023/01/23 00:41:01;;;;;;;;;;;;;;;;;;5117545;28;20344;-72
2023/01/23 00:43:27;;;;;;;;;;;;;;;;;;5116877;28;20308;-73
2023/01/23 00:45:53;;;;;;;;;;;;;;;;;;5117543;28;19907;-72
2023/01/23 00:48:19;;;;;;;;;;;;;;;;;;5117381;28;19930;-72
2023/01/23 00:50:45;;;;;;;;;;;;;;;;;;5116936;28;20287;-72
2023/01/23 00:53:14;;;;;;;;;;;;;;;;;;5117472;28;19947;-72
2023/01/23 00:55:40;;;;;;;;;;;;;;;;;;5117225;28;19911;-72
2023/01/23 00:58:07;;;;;;;;;;;;;;;;;;5115526;28;19914;-72
2023/01/23 01:00:33;;;;;;;;;;;;;;;;;;5117237;28;19916;-72
2023/01/23 01:02:59;;;;;;;;;;;;;;;;;;5116583;28;19916;-72
2023/01/23 01:05:24;;;;;;;;;;;;;;;;;;5117022;28;19930;-71
2023/01/23 01:07:50;;;;;;;;;;;;;;;;;;5116996;28;19961;-71
2023/01/23 01:10:16;;;;;;;;;;;;;;;;;;5116499;28;19912;-71
2023/01/23 01:12:42;;;;;;;;;;;;;;;;;;5117021;28;20010;-71
2023/01/23 01:15:08;;;;;;;;;;;;;;;;;;5116299;28;19908;-71
2023/01/23 01:17:34;;;;;;;;;;;;;;;;;;5116366;28;19908;-71
2023/01/23 01:20:00;;;;;;;;;;;;;;;;;;5115449;28;19914;-72
2023/01/23 01:22:26;;;;;;;;;;;;;;;;;;5117156;28;20241;-71
2023/01/23 01:24:52;;;;;;;;;;;;;;;;;;5116300;28;20295;-71
2023/01/23 01:27:18;;;;;;;;;;;;;;;;;;5116702;28;20287;-72
2023/01/23 01:29:44;;;;;;;;;;;;;;;;;;5116566;28;20283;-71
2023/01/23 01:32:10;;;;;;;;;;;;;;;;;;5116293;28;19915;-72
2023/01/23 01:34:36;;;;;;;;;;;;;;;;;;5116492;28;19947;-71
2023/01/23 01:37:02;;;;;;;;;;;;;;;;;;5116883;28;19926;-72
2023/01/23 01:39:28;;;;;;;;;;;;;;;;;;5116036;28;19914;-72
2023/01/23 01:41:53;;;;;;;;;;;;;;;;;;5116460;28;19908;-72
2023/01/23 01:44:19;;;;;;;;;;;;;;;;;;5116043;28;20395;-72
2023/01/23 01:46:45;;;;;;;;;;;;;;;;;;5115887;28;19912;-71
2023/01/23 01:49:11;;;;;;;;;;;;;;;;;;5116434;28;19911;-71
2023/01/23 01:51:37;;;;;;;;;;;;;;;;;;5114793;28;19946;-71
2023/01/23 01:54:03;;;;;;;;;;;;;;;;;;5115708;28;19908;-71
2023/01/23 01:56:29;;;;;;;;;;;;;;;;;;5116089;28;19907;-71
2023/01/23 01:58:55;;;;;;;;;;;;;;;;;;5116210;28;19907;-71
2023/01/23 02:01:21;;;;;;;;;;;;;;;;;;5115474;28;19918;-71
2023/01/23 02:03:47;;;;;;;;;;;;;;;;;;5114579;28;19916;-71
2023/01/23 02:06:13;;;;;;;;;;;;;;;;;;5115544;28;19907;-71
2023/01/23 02:08:39;;;;;;;;;;;;;;;;;;5115842;28;20379;-72
2023/01/23 02:11:05;;;;;;;;;;;;;;;;;;5116160;28;20336;-71
2023/01/23 02:13:38;;;;;;;;;;;;;;;;;;5115193;28;19916;-72
2023/01/23 02:16:04;;;;;;;;;;;;;;;;;;5115669;28;19907;-71
2023/01/23 02:18:30;;;;;;;;;;;;;;;;;;5115581;28;19953;-71
2023/01/23 02:20:56;;;;;;;;;;;;;;;;;;5115162;28;19937;-71
2023/01/23 02:23:22;;;;;;;;;;;;;;;;;;5115548;28;19923;-71
2023/01/23 02:25:50;;;;;;;;;;;;;;;;;;5115444;28;19907;-71
2023/01/23 02:28:16;;;;;;;;;;;;;;;;;;5114357;28;19908;-71
2023/01/23 02:30:42;;;;;;;;;;;;;;;;;;5115412;28;19911;-71
2023/01/23 02:33:08;;;;;;;;;;;;;;;;;;5115277;28;20372;-71
2023/01/23 02:35:34;;;;;;;;;;;;;;;;;;5114916;28;20382;-71
2023/01/23 02:38:00;;;;;;;;;;;;;;;;;;5113962;28;19908;-72
2023/01/23 02:40:26;;;;;;;;;;;;;;;;;;5115247;28;19980;-71
2023/01/23 02:42:54;;;;;;;;;;;;;;;;;;5114499;28;20399;-71
2023/01/23 02:45:20;;;;;;;;;;;;;;;;;;5115083;28;20368;-71
2023/01/23 02:47:46;;;;;;;;;;;;;;;;;;5113759;28;19915;-71
2023/01/23 02:50:12;;;;;;;;;;;;;;;;;;5114581;28;19912;-72
2023/01/23 02:52:38;;;;;;;;;;;;;;;;;;5114995;28;19993;-71
2023/01/23 02:55:03;;;;;;;;;;;;;;;;;;5114919;28;19908;-71
2023/01/23 02:57:29;;;;;;;;;;;;;;;;;;5113151;28;20007;-71
2023/01/23 03:02:40;;;;;;;;;;;;;;;;;;5114433;28;19923;-71
2023/01/23 03:05:06;;;;;;;;;;;;;;;;;;5114780;28;20338;-71
2023/01/23 03:07:32;;;;;;;;;;;;;;;;;;5114818;28;20283;-72
2023/01/23 03:09:58;;;;;;;;;;;;;;;;;;5114292;28;19994;-72
2023/01/23 03:12:24;;;;;;;;;;;;;;;;;;5114735;28;19908;-72
2023/01/23 03:14:53;;;;;;;;;;;;;;;;;;5114604;28;19908;-72
2023/01/23 03:17:19;;;;;;;;;;;;;;;;;;5114160;28;20357;-72
2023/01/23 03:19:45;;;;;;;;;;;;;;;;;;5114496;28;19972;-72
2023/01/23 03:22:11;;;;;;;;;;;;;;;;;;5113272;28;19951;-71
2023/01/23 03:24:38;;;;;;;;;;;;;;;;;;5114005;28;19916;-72
2023/01/23 03:27:03;;;;;;;;;;;;;;;;;;5114468;28;19908;-72
2023/01/23 03:32:14;;;;;;;;;;;;;;;;;;5114049;28;19915;-73
2023/01/23 03:34:40;;;;;;;;;;;;;;;;;;5114579;28;19908;-72
2023/01/23 03:37:09;;;;;;;;;;;;;;;;;;5114367;28;20267;-72
2023/01/23 03:42:19;;;;;;;;;;;;;;;;;;5114146;28;19922;-72
2023/01/23 03:44:45;;;;;;;;;;;;;;;;;;5112683;28;19916;-72
2023/01/23 03:47:11;;;;;;;;;;;;;;;;;;5114247;28;19911;-72
2023/01/23 03:49:37;;;;;;;;;;;;;;;;;;5112943;28;19908;-72
2023/01/23 03:52:03;;;;;;;;;;;;;;;;;;5113883;28;19911;-72
2023/01/23 03:54:29;;;;;;;;;;;;;;;;;;5114160;28;20010;-73
2023/01/23 03:56:55;;;;;;;;;;;;;;;;;;5114127;28;19960;-72
2023/01/23 03:59:21;;;;;;;;;;;;;;;;;;5113774;28;19912;-72
2023/01/23 04:01:47;;;;;;;;;;;;;;;;;;5113966;28;20314;-72
2023/01/23 04:04:13;;;;;;;;;;;;;;;;;;5112726;28;20381;-72
2023/01/23 04:06:39;;;;;;;;;;;;;;;;;;5112318;28;19908;-72
2023/01/23 04:09:05;;;;;;;;;;;;;;;;;;5112699;28;20001;-72
2023/01/23 04:11:31;;;;;;;;;;;;;;;;;;5113923;28;19912;-73
2023/01/23 04:13:57;;;;;;;;;;;;;;;;;;5113544;28;20002;-72
2023/01/23 04:16:23;;;;;;;;;;;;;;;;;;5113950;28;20272;-72
2023/01/23 04:18:49;;;;;;;;;;;;;;;;;;5112655;28;20001;-72
2023/01/23 04:21:15;;;;;;;;;;;;;;;;;;5113589;28;20316;-72
2023/01/23 04:23:41;;;;;;;;;;;;;;;;;;5112470;28;19915;-72
2023/01/23 04:26:07;;;;;;;;;;;;;;;;;;5112580;28;19950;-72
2023/01/23 04:28:33;;;;;;;;;;;;;;;;;;5112133;28;19907;-72
2023/01/23 04:30:59;;;;;;;;;;;;;;;;;;5113772;28;19915;-72
2023/01/23 04:33:25;;;;;;;;;;;;;;;;;;5113884;28;20006;-72
2023/01/23 04:35:50;;;;;;;;;;;;;;;;;;5113359;28;20268;-72
2023/01/23 04:38:16;;;;;;;;;;;;;;;;;;5113797;28;20283;-72
2023/01/23 04:40:42;;;;;;;;;;;;;;;;;;5113813;28;19953;-72
2023/01/23 04:43:08;;;;;;;;;;;;;;;;;;5112995;28;19923;-72
2023/01/23 04:45:35;;;;;;;;;;;;;;;;;;5113697;28;20007;-72
2023/01/23 04:48:01;;;;;;;;;;;;;;;;;;5111942;28;20292;-72
2023/01/23 04:50:27;;;;;;;;;;;;;;;;;;5114391;28;19908;-72
2023/01/23 04:52:53;;;;;;;;;;;;;;;;;;5117358;28;20426;-72
2023/01/23 04:55:19;;;;;;;;;;;;;;;;;;5116975;28;20280;-72
2023/01/23 04:57:45;;;;;;;;;;;;;;;;;;5117281;28;19931;-72
2023/01/23 05:00:12;;;;;;;;;;;;;;;;;;5117185;28;19911;-72
2023/01/23 05:02:38;;;;;;;;;;;;;;;;;;5116727;28;19908;-72
2023/01/23 05:05:04;;;;;;;;;;;;;;;;;;5117079;28;19947;-72
2023/01/23 05:07:30;;;;;;;;;;;;;;;;;;5117108;28;20373;-72
2023/01/23 05:09:56;;;;;;;;;;;;;;;;;;5116676;28;19908;-72
2023/01/23 05:12:22;;;;;;;;;;;;;;;;;;5117050;28;19908;-72
2023/01/23 05:14:48;;;;;;;;;;;;;;;;;;5116940;28;19914;-72
2023/01/23 05:17:14;;;;;;;;;;;;;;;;;;5116424;28;19939;-72
2023/01/23 05:19:40;;;;;;;;;;;;;;;;;;5117106;28;19908;-72
2023/01/23 05:22:06;;;;;;;;;;;;;;;;;;5115898;28;19908;-72
2023/01/23 05:24:32;;;;;;;;;;;;;;;;;;5116309;28;20014;-73
2023/01/23 05:26:57;;;;;;;;;;;;;;;;;;5116682;28;19912;-72
2023/01/23 05:29:23;;;;;;;;;;;;;;;;;;5116667;28;20002;-72
2023/01/23 05:31:49;;;;;;;;;;;;;;;;;;5113736;28;19914;-72
2023/01/23 05:34:15;;;;;;;;;;;;;;;;;;5116232;28;19908;-72
2023/01/23 05:36:41;;;;;;;;;;;;;;;;;;5116452;28;19912;-72
2023/01/23 05:39:07;;;;;;;;;;;;;;;;;;5115104;28;19912;-73
2023/01/23 05:41:33;;;;;;;;;;;;;;;;;;5114260;28;19915;-72
2023/01/23 05:43:59;;;;;;;;;;;;;;;;;;5113970;28;19926;-71
2023/01/23 05:46:25;;;;;;;;;;;;;;;;;;5113951;28;19943;-72
2023/01/23 05:48:51;;;;;;;;;;;;;;;;;;5114943;28;19918;-72
2023/01/23 05:51:17;;;;;;;;;;;;;;;;;;5113473;28;19908;-72
2023/01/23 05:53:43;;;;;;;;;;;;;;;;;;5115383;28;19996;-72
2023/01/23 05:56:09;;;;;;;;;;;;;;;;;;5114620;28;19957;-72
2023/01/23 05:58:35;;;;;;;;;;;;;;;;;;5115749;28;19912;-72
2023/01/23 06:01:00;;;;;;;;;;;;;;;;;;5114768;28;19975;-72
2023/01/23 06:03:26;;;;;;;;;;;;;;;;;;5115927;28;19912;-72
2023/01/23 06:05:52;;;;;;;;;;;;;;;;;;5112284;28;19912;-68
2023/01/23 06:08:18;;;;;;;;;;;;;;;;;;5114450;28;19952;-72
2023/01/23 06:10:44;;;;;;;;;;;;;;;;;;5115534;28;19954;-71
2023/01/23 06:13:10;;;;;;;;;;;;;;;;;;5114529;28;19912;-72
2023/01/23 06:15:36;;;;;;;;;;;;;;;;;;5113554;28;19908;-69
2023/01/23 06:18:02;;;;;;;;;;;;;;;;;;5113081;28;19914;-76
2023/01/23 06:20:28;;;;;;;;;;;;;;;;;;5107011;28;19911;-75
2023/01/23 06:22:54;;;;;;;;;;;;;;;;;;5107116;28;19994;-72
2023/01/23 06:25:21;;;;;;;;;;;;;;;;;;5110009;28;19919;-73
2023/01/23 06:27:47;;;;;;;;;;;;;;;;;;5097755;28;20036;-73
2023/01/23 06:30:13;;;;;;;;;;;;;;;;;;5110782;28;19936;-72
2023/01/23 06:32:39;;;;;;;;;;;;;;;;;;5110996;28;19939;-72
2023/01/23 06:35:05;;;;;;;;;;;;;;;;;;5106745;28;19915;-71
2023/01/23 06:37:31;;;;;;;;;;;;;;;;;;5106717;28;19915;-74
2023/01/23 06:39:57;;;;;;;;;;;;;;;;;;5110957;28;19908;-72
2023/01/23 06:42:23;;;;;;;;;;;;;;;;;;5103867;28;19916;-74
2023/01/23 06:44:49;;;;;;;;;;;;;;;;;;5112844;28;20010;-73
2023/01/23 06:47:15;;;;;;;;;;;;;;;;;;5112948;28;19908;-77
2023/01/23 06:49:41;;;;;;;;;;;;;;;;;;5110351;28;19943;-74
2023/01/23 06:52:07;;;;;;;;;;;;;;;;;;5106473;28;19985;-74
2023/01/23 06:54:33;;;;;;;;;;;;;;;;;;5111046;28;19907;-75
2023/01/23 06:56:59;;;;;;;;;;;;;;;;;;5109447;28;19915;-73
2023/01/23 06:59:25;;;;;;;;;;;;;;;;;;5110442;28;19907;-73
2023/01/23 07:01:51;;;;;;;;;;;;;;;;;;5110790;28;19923;-74
2023/01/23 07:04:17;;;;;;;;;;;;;;;;;;5109143;28;19935;-72
2023/01/23 07:06:44;;;;;;;;;;;;;;;;;;5110393;28;19915;-74
2023/01/23 07:09:11;;;;;;;;;;;;;;;;;;5108162;28;19920;-71
2023/01/23 07:11:37;;;;;;;;;;;;;;;;;;5113587;28;19914;-79
2023/01/23 07:14:03;;;;;;;;;;;;;;;;;;5107823;28;19915;-74
2023/01/23 07:16:29;;;;;;;;;;;;;;;;;;5101855;28;19922;-75
2023/01/23 07:18:57;;;;;;;;;;;;;;;;;;5112954;28;19908;-76
2023/01/23 07:21:23;;;;;;;;;;;;;;;;;;5108634;28;19908;-74
2023/01/23 07:23:49;;;;;;;;;;;;;;;;;;5091241;28;19942;-72
2023/01/23 07:26:15;;;;;;;;;;;;;;;;;;5090674;28;19908;-72
2023/01/23 07:28:42;;;;;;;;;;;;;;;;;;5101676;28;19912;-70
2023/01/23 07:31:11;;;;;;;;;;;;;;;;;;5104148;28;20344;-72
2023/01/23 07:33:37;;;;;;;;;;;;;;;;;;5112203;28;19915;-70
2023/01/23 07:36:03;;;;;;;;;;;;;;;;;;5106081;28;20466;-71
2023/01/23 07:38:29;;;;;;;;;;;;;;;;;;5111129;28;19908;-69
2023/01/23 07:40:55;;;;;;;;;;;;;;;;;;5111605;28;20387;-70
2023/01/23 07:43:22;;;;;;;;;;;;;;;;;;5106191;28;19934;-71
2023/01/23 07:45:49;;;;;;;;;;;;;;;;;;5108780;28;20003;-71
2023/01/23 07:48:15;;;;;;;;;;;;;;;;;;5110891;28;20348;-72
2023/01/23 07:50:41;;;;;;;;;;;;;;;;;;5100670;28;20214;-72
2023/01/23 07:53:07;;;;;;;;;;;;;;;;;;5101530;28;19919;-70
2023/01/23 07:55:33;;;;;;;;;;;;;;;;;;5106097;28;19908;-72
2023/01/23 07:57:58;;;;;;;;;;;;;;;;;;5109575;28;19931;-71
2023/01/23 08:00:24;;;;;;;;;;;;;;;;;;5110795;28;19915;-70
2023/01/23 08:02:50;;;;;;;;;;;;;;;;;;5110952;28;19912;-69
2023/01/23 08:05:16;;;;;;;;;;;;;;;;;;5110682;28;19916;-72
2023/01/23 08:07:42;;;;;;;;;;;;;;;;;;5113317;28;19982;-70
2023/01/23 08:10:08;;;;;;;;;;;;;;;;;;5103816;28;19908;-74
2023/01/23 08:12:34;;;;;;;;;;;;;;;;;;5105085;28;19969;-73
2023/01/23 08:15:00;;;;;;;;;;;;;;;;;;5104229;28;19912;-72
2023/01/23 08:17:27;;;;;;;;;;;;;;;;;;5092507;28;19912;-72
2023/01/23 08:19:52;;;;;;;;;;;;;;;;;;5089545;28;19962;-73
2023/01/23 08:22:18;;;;;;;;;;;;;;;;;;5090573;28;20329;-72
2023/01/23 08:24:45;;;;;;;;;;;;;;;;;;5088347;28;20312;-70
2023/01/23 08:27:11;;;;;;;;;;;;;;;;;;5092121;28;19916;-72
2023/01/23 08:29:37;;;;;;;;;;;;;;;;;;5103638;28;19931;-73
2023/01/23 08:32:02;;;;;;;;;;;;;;;;;;5093874;28;20268;-71
2023/01/23 08:34:28;;;;;;;;;;;;;;;;;;5104520;28;19912;-73
2023/01/23 08:36:54;;;;;;;;;;;;;;;;;;5112162;28;19961;-68
2023/01/23 08:39:20;;;;;;;;;;;;;;;;;;5112221;28;19961;-69
2023/01/23 08:41:46;;;;;;;;;;;;;;;;;;5112781;28;20664;-71
2023/01/23 08:44:12;;;;;;;;;;;;;;;;;;5113679;28;19926;-71
2023/01/23 08:46:38;;;;;;;;;;;;;;;;;;5113500;28;19907;-70
2023/01/23 08:49:04;;;;;;;;;;;;;;;;;;5103753;28;19922;-70
2023/01/23 08:51:30;;;;;;;;;;;;;;;;;;5115819;28;19912;-73
2023/01/23 08:53:56;;;;;;;;;;;;;;;;;;5115426;28;19915;-69
2023/01/23 08:56:22;;;;;;;;;;;;;;;;;;5096055;28;20007;-70
2023/01/23 08:58:48;;;;;;;;;;;;;;;;;;5098140;28;19908;-70
2023/01/23 09:01:15;;;;;;;;;;;;;;;;;;5114147;28;20220;-70
2023/01/23 09:03:41;;;;;;;;;;;;;;;;;;5115420;28;19920;-69
2023/01/23 09:06:07;;;;;;;;;;;;;;;;;;5116026;28;19961;-73
2023/01/23 09:08:33;;;;;;;;;;;;;;;;;;5103809;28;20400;-73
2023/01/23 09:11:01;;;;;;;;;;;;;;;;;;5101232;28;19918;-73
2023/01/23 09:13:27;;;;;;;;;;;;;;;;;;5110143;28;20312;-75
2023/01/23 09:15:53;;;;;;;;;;;;;;;;;;5109761;28;20014;-74
2023/01/23 09:18:21;;;;;;;;;;;;;;;;;;5113513;28;19908;-74
2023/01/23 09:20:47;;;;;;;;;;;;;;;;;;5113382;28;20526;-73
2023/01/23 09:23:13;;;;;;;;;;;;;;;;;;5114149;28;20002;-74
2023/01/23 09:25:39;;;;;;;;;;;;;;;;;;5114215;28;19912;-74
2023/01/23 09:28:05;;;;;;;;;;;;;;;;;;5112579;28;19961;-75
2023/01/23 09:30:31;;;;;;;;;;;;;;;;;;5112578;28;20410;-71
2023/01/23 09:32:57;;;;;;;;;;;;;;;;;;5112915;28;19907;-72
2023/01/23 09:35:23;;;;;;;;;;;;;;;;;;5111905;28;19915;-71
2023/01/23 09:37:58;;;;;;;;;;;;;;;;;;5112364;28;20271;-72
2023/01/23 09:40:24;;;;;;;;;;;;;;;;;;5112776;28;19915;-70
2023/01/23 09:42:50;;;;;;;;;;;;;;;;;;5115510;28;19916;-73
2023/01/23 09:45:16;;;;;;;;;;;;;;;;;;5114624;28;19912;-70
2023/01/23 09:47:42;;;;;;;;;;;;;;;;;;5113758;28;19912;-68
2023/01/23 09:50:08;;;;;;;;;;;;;;;;;;5113454;28;20010;-69
2023/01/23 09:52:34;;;;;;;;;;;;;;;;;;5111908;28;19911;-71
2023/01/23 09:55:00;;;;;;;;;;;;;;;;;;5108364;28;19953;-72
2023/01/23 09:57:26;;;;;;;;;;;;;;;;;;5112861;28;20010;-71
2023/01/23 09:59:52;;;;;;;;;;;;;;;;;;5112815;28;19919;-76
2023/01/23 10:02:19;;;;;;;;;;;;;;;;;;5113412;28;19912;-72
2023/01/23 10:04:45;;;;;;;;;;;;;;;;;;5111940;28;19915;-71
2023/01/23 10:07:10;;;;;;;;;;;;;;;;;;5114209;28;19915;-71
2023/01/23 10:09:36;;;;;;;;;;;;;;;;;;5114726;28;20006;-73
2023/01/23 10:12:03;;;;;;;;;;;;;;;;;;5114533;28;20000;-71
2023/01/23 10:14:29;;;;;;;;;;;;;;;;;;5113446;28;19907;-69
2023/01/23 10:16:55;;;;;;;;;;;;;;;;;;5113182;28;19912;-69
2023/01/23 10:19:21;;;;;;;;;;;;;;;;;;5107327;28;19916;-68
2023/01/23 10:21:47;;;;;;;;;;;;;;;;;;5113208;28;20356;-70
2023/01/23 10:24:13;;;;;;;;;;;;;;;;;;5114911;28;20382;-69
2023/01/23 10:26:39;;;;;;;;;;;;;;;;;;5114270;28;19908;-72
2023/01/23 10:29:04;;;;;;;;;;;;;;;;;;5114199;28;19914;-74
2023/01/23 10:31:30;;;;;;;;;;;;;;;;;;5111669;28;19912;-70
2023/01/23 10:33:56;;;;;;;;;;;;;;;;;;5111500;28;20356;-71
2023/01/23 10:36:22;;;;;;;;;;;;;;;;;;5112554;28;19908;-70
2023/01/23 10:38:48;;;;;;;;;;;;;;;;;;5114763;28;20014;-70
2023/01/23 10:41:18;;;;;;;;;;;;;;;;;;5112250;28;19912;-71
2023/01/23 10:43:44;;;;;;;;;;;;;;;;;;5101583;28;19920;-70
2023/01/23 10:46:10;;;;;;;;;;;;;;;;;;5109972;28;19915;-71
2023/01/23 10:48:36;;;;;;;;;;;;;;;;;;5112325;28;20037;-72
2023/01/23 10:51:03;;;;;;;;;;;;;;;;;;5113757;28;20434;-73
2023/01/23 10:53:29;;;;;;;;;;;;;;;;;;5093909;28;19916;-72
2023/01/23 10:55:55;;;;;;;;;;;;;;;;;;5112007;28;20283;-72
2023/01/23 10:58:21;;;;;;;;;;;;;;;;;;5113253;28;19912;-70
2023/01/23 11:00:47;;;;;;;;;;;;;;;;;;5112050;28;19912;-72
2023/01/23 11:03:13;;;;;;;;;;;;;;;;;;5094371;28;19912;-72
2023/01/23 11:05:39;;;;;;;;;;;;;;;;;;5093491;28;20432;-71
2023/01/23 11:08:05;;;;;;;;;;;;;;;;;;5101910;28;20422;-71
2023/01/23 11:10:31;;;;;;;;;;;;;;;;;;5099003;28;19911;-69
2023/01/23 11:12:57;;;;;;;;;;;;;;;;;;5110842;28;19908;-70
2023/01/23 11:15:23;;;;;;;;;;;;;;;;;;5109572;28;19908;-68
2023/01/23 11:17:49;;;;;;;;;;;;;;;;;;5111362;28;19915;-68
2023/01/23 11:20:15;;;;;;;;;;;;;;;;;;5111341;28;19908;-68
2023/01/23 11:22:41;;;;;;;;;;;;;;;;;;5090556;28;19908;-70
2023/01/23 11:25:07;;;;;;;;;;;;;;;;;;5090309;28;19917;-71
2023/01/23 11:27:33;;;;;;;;;;;;;;;;;;5090403;28;19916;-70
2023/01/23 11:29:59;;;;;;;;;;;;;;;;;;5091455;28;19908;-69
2023/01/23 11:32:25;;;;;;;;;;;;;;;;;;5091642;28;20007;-70
2023/01/23 11:34:52;;;;;;;;;;;;;;;;;;5090095;28;19920;-71
2023/01/23 11:37:18;;;;;;;;;;;;;;;;;;5090381;28;19957;-71
2023/01/23 11:39:44;;;;;;;;;;;;;;;;;;5092481;28;20006;-72
2023/01/23 11:42:10;;;;;;;;;;;;;;;;;;5091999;28;20280;-73
2023/01/23 11:44:36;;;;;;;;;;;;;;;;;;5096892;28;20368;-72
2023/01/23 11:47:02;;;;;;;;;;;;;;;;;;5113667;28;19933;-72
2023/01/23 11:49:28;;;;;;;;;;;;;;;;;;5112448;28;19912;-72
2023/01/23 11:51:54;;;;;;;;;;;;;;;;;;5113091;28;19912;-72
2023/01/23 11:54:19;;;;;;;;;;;;;;;;;;5112605;28;19915;-70
2023/01/23 11:56:45;;;;;;;;;;;;;;;;;;5104549;28;19912;-70
2023/01/23 11:59:13;;;;;;;;;;;;;;;;;;5111285;28;19916;-68
2023/01/23 12:01:39;;;;;;;;;;;;;;;;;;5114744;28;20386;-69
2023/01/23 12:04:05;;;;;;;;;;;;;;;;;;5117380;28;19919;-69
2023/01/23 12:06:30;;;;;;;;;;;;;;;;;;5117776;28;19908;-69
2023/01/23 12:08:56;;;;;;;;;;;;;;;;;;5116599;28;20010;-67
2023/01/23 12:11:24;;;;;;;;;;;;;;;;;;5108935;28;20317;-68
2023/01/23 12:13:50;;;;;;;;;;;;;;;;;;5115200;28;20371;-67
2023/01/23 12:16:16;;;;;;;;;;;;;;;;;;5102464;28;19912;-67
2023/01/23 12:18:42;;;;;;;;;;;;;;;;;;5093005;28;19916;-69
2023/01/23 12:21:08;;;;;;;;;;;;;;;;;;5094965;28;19959;-67
2023/01/23 12:23:34;;;;;;;;;;;;;;;;;;5095341;28;19939;-67
2023/01/23 12:25:59;;;;;;;;;;;;;;;;;;5096029;28;19908;-68
2023/01/23 12:28:25;;;;;;;;;;;;;;;;;;5106596;28;19996;-68
2023/01/23 12:30:51;;;;;;;;;;;;;;;;;;5110655;28;19938;-67
2023/01/23 12:33:17;;;;;;;;;;;;;;;;;;5105700;28;19916;-67
2023/01/23 12:35:43;;;;;;;;;;;;;;;;;;5107668;28;19964;-68
2023/01/23 12:38:10;;;;;;;;;;;;;;;;;;5114931;28;20439;-70
2023/01/23 12:40:36;;;;;;;;;;;;;;;;;;5114437;28;19908;-68
2023/01/23 12:43:02;;;;;;;;;;;;;;;;;;5113683;28;19923;-69
2023/01/23 12:45:28;;;;;;;;;;;;;;;;;;5105337;28;19915;-69
2023/01/23 12:47:54;;;;;;;;;;;;;;;;;;5113424;28;19919;-70
2023/01/23 12:50:21;;;;;;;;;;;;;;;;;;5116263;28;20348;-69
2023/01/23 12:52:47;;;;;;;;;;;;;;;;;;5113363;28;19908;-67
2023/01/23 12:55:13;;;;;;;;;;;;;;;;;;5112628;28;19912;-67
2023/01/23 12:57:39;;;;;;;;;;;;;;;;;;5099282;28;20027;-67
2023/01/23 13:00:04;;;;;;;;;;;;;;;;;;5104486;28;19916;-66
2023/01/23 13:02:30;;;;;;;;;;;;;;;;;;5096518;28;19912;-70
2023/01/23 13:04:56;;;;;;;;;;;;;;;;;;5092731;28;19945;-71
2023/01/23 13:07:22;;;;;;;;;;;;;;;;;;5105765;28;19914;-70
2023/01/23 13:09:48;;;;;;;;;;;;;;;;;;5113369;28;19908;-68
2023/01/23 13:12:18;;;;;;;;;;;;;;;;;;5113601;28;20439;-68
2023/01/23 13:14:44;;;;;;;;;;;;;;;;;;5113999;28;19927;-66
2023/01/23 13:17:10;;;;;;;;;;;;;;;;;;5115984;28;19911;-68
2023/01/23 13:22:21;;;;;;;;;;;;;;;;;;5113810;28;19923;-66
2023/01/23 13:27:32;;;;;;;;;;;;;;;;;;5115633;28;19973;-67
2023/01/23 13:29:58;;;;;;;;;;;;;;;;;;5114910;28;19965;-68
2023/01/23 13:32:24;;;;;;;;;;;;;;;;;;5114581;28;19908;-69
2023/01/23 13:34:49;;;;;;;;;;;;;;;;;;5112192;28;19908;-68
2023/01/23 13:37:15;;;;;;;;;;;;;;;;;;5113545;28;20002;-69
2023/01/23 13:39:41;;;;;;;;;;;;;;;;;;5115904;28;19911;-69
2023/01/23 13:42:07;;;;;;;;;;;;;;;;;;5115841;28;19915;-69
2023/01/23 13:44:39;;;;;;;;;;;;;;;;;;5115744;28;19948;-70
2023/01/23 13:47:05;;;;;;;;;;;;;;;;;;5113986;28;19915;-70
2023/01/23 13:57:45;;;;;;;;;;;;;;;;;;5115965;28;19966;-68
2023/01/23 14:00:11;;;;;;;;;;;;;;;;;;5114627;28;20365;-69
2023/01/23 14:05:23;;;;;;;;;;;;;;;;;;5114243;28;19926;-69
2023/01/23 14:07:52;;;;;;;;;;;;;;;;;;5113442;28;19914;-68
2023/01/23 14:10:18;;;;;;;;;;;;;;;;;;5114934;28;19974;-68
2023/01/23 14:12:44;;;;;;;;;;;;;;;;;;5114724;28;20463;-69
2023/01/23 14:17:56;;;;;;;;;;;;;;;;;;5115172;28;19915;-69
2023/01/23 14:20:22;;;;;;;;;;;;;;;;;;5115781;28;20008;-69
2023/01/23 14:22:48;;;;;;;;;;;;;;;;;;5114845;28;19992;-69
2023/01/23 14:25:14;;;;;;;;;;;;;;;;;;5113776;28;19928;-69
2023/01/23 14:27:40;;;;;;;;;;;;;;;;;;5114301;28;20364;-70
2023/01/23 14:30:06;;;;;;;;;;;;;;;;;;5115595;28;19907;-69
2023/01/23 14:32:32;;;;;;;;;;;;;;;;;;5115215;28;19912;-69
2023/01/23 14:34:58;;;;;;;;;;;;;;;;;;5114429;28;20314;-69
2023/01/23 14:37:23;;;;;;;;;;;;;;;;;;5115451;28;20321;-69
2023/01/23 14:39:50;;;;;;;;;;;;;;;;;;5115064;28;19915;-69
2023/01/23 14:42:16;;;;;;;;;;;;;;;;;;5113803;28;19952;-68
2023/01/23 14:44:42;;;;;;;;;;;;;;;;;;5115225;28;20372;-69
2023/01/23 14:47:07;;;;;;;;;;;;;;;;;;5114887;28;19908;-68
2023/01/23 14:49:33;;;;;;;;;;;;;;;;;;5115141;28;19915;-69
2023/01/23 14:51:59;;;;;;;;;;;;;;;;;;5115162;28;19914;-68
2023/01/23 14:54:25;;;;;;;;;;;;;;;;;;5114692;28;19958;-69
2023/01/23 14:56:51;;;;;;;;;;;;;;;;;;5115032;28;19911;-68
2023/01/23 14:59:17;;;;;;;;;;;;;;;;;;5115015;28;19919;-69
2023/01/23 15:01:43;;;;;;;;;;;;;;;;;;5114556;28;19990;-69
2023/01/23 15:04:09;;;;;;;;;;;;;;;;;;5114781;28;19939;-69
2023/01/23 15:06:35;;;;;;;;;;;;;;;;;;5114848;28;19911;-69
2023/01/23 15:09:01;;;;;;;;;;;;;;;;;;5114484;28;19912;-69
2023/01/23 15:11:27;;;;;;;;;;;;;;;;;;5113460;28;19908;-68
2023/01/23 15:13:54;;;;;;;;;;;;;;;;;;5114612;28;19958;-69
2023/01/23 15:16:20;;;;;;;;;;;;;;;;;;5114688;28;19915;-68
2023/01/23 15:18:46;;;;;;;;;;;;;;;;;;5114634;28;19960;-68
2023/01/23 15:21:11;;;;;;;;;;;;;;;;;;5112883;28;19916;-68
2023/01/23 15:23:37;;;;;;;;;;;;;;;;;;5113266;28;19912;-69
2023/01/23 15:26:03;;;;;;;;;;;;;;;;;;5113202;28;19919;-68
2023/01/23 15:28:29;;;;;;;;;;;;;;;;;;5114277;28;20060;-68
2023/01/23 15:30:55;;;;;;;;;;;;;;;;;;5113404;28;19908;-68
2023/01/23 15:33:21;;;;;;;;;;;;;;;;;;5114742;28;19912;-69
2023/01/23 15:35:47;;;;;;;;;;;;;;;;;;5113701;28;19947;-68
2023/01/23 15:38:13;;;;;;;;;;;;;;;;;;5114381;28;19961;-68
2023/01/23 15:40:39;;;;;;;;;;;;;;;;;;5114447;28;19961;-68
2023/01/23 15:43:07;;;;;;;;;;;;;;;;;;5113354;28;20006;-68
2023/01/23 15:45:35;;;;;;;;;;;;;;;;;;5113509;28;20209;-68
2023/01/23 15:48:01;;;;;;;;;;;;;;;;;;5114135;28;19958;-68
2023/01/23 15:50:27;;;;;;;;;;;;;;;;;;5111147;28;19908;-69
2023/01/23 15:52:53;;;;;;;;;;;;;;;;;;5108603;28;19912;-69
2023/01/23 15:55:19;;;;;;;;;;;;;;;;;;5113879;28;19908;-69
2023/01/23 15:57:45;;;;;;;;;;;;;;;;;;5112293;28;19907;-69
2023/01/23 16:00:11;;;;;;;;;;;;;;;;;;5108389;28;19951;-69
2023/01/23 16:02:37;;;;;;;;;;;;;;;;;;5113939;28;19958;-69
2023/01/23 16:05:03;;;;;;;;;;;;;;;;;;5106612;28;19982;-68
2023/01/23 16:07:29;;;;;;;;;;;;;;;;;;5113996;28;19908;-69
2023/01/23 16:09:55;;;;;;;;;;;;;;;;;;5113911;28;19908;-67
2023/01/23 16:12:21;;;;;;;;;;;;;;;;;;5113407;28;19971;-67
2023/01/23 16:14:47;;;;;;;;;;;;;;;;;;5107516;28;19951;-69
2023/01/23 16:17:13;;;;;;;;;;;;;;;;;;5113488;28;19915;-69
2023/01/23 16:19:39;;;;;;;;;;;;;;;;;;5113777;28;19908;-70
2023/01/23 16:22:05;;;;;;;;;;;;;;;;;;5113028;28;19907;-68
2023/01/23 16:24:31;;;;;;;;;;;;;;;;;;5113521;28;19945;-69
2023/01/23 16:27:00;;;;;;;;;;;;;;;;;;5112373;28;19908;-69
2023/01/23 16:29:26;;;;;;;;;;;;;;;;;;5113775;28;19914;-69
2023/01/23 16:31:52;;;;;;;;;;;;;;;;;;5113429;28;20267;-69
2023/01/23 16:34:18;;;;;;;;;;;;;;;;;;5112467;28;19908;-69
2023/01/23 16:36:44;;;;;;;;;;;;;;;;;;5113911;28;20348;-69
2023/01/23 16:39:10;;;;;;;;;;;;;;;;;;5113355;28;19961;-69
2023/01/23 16:41:36;;;;;;;;;;;;;;;;;;5113795;28;20443;-69
2023/01/23 16:44:02;;;;;;;;;;;;;;;;;;5113605;28;20433;-69
2023/01/23 16:46:28;;;;;;;;;;;;;;;;;;5114259;28;20368;-69
2023/01/23 16:48:55;;;;;;;;;;;;;;;;;;5117622;28;19932;-69
2023/01/23 16:51:22;;;;;;;;;;;;;;;;;;5117350;28;20383;-69
2023/01/23 16:53:48;;;;;;;;;;;;;;;;;;5117072;28;19907;-69
2023/01/23 16:56:13;;;;;;;;;;;;;;;;;;5117267;28;20387;-69
2023/01/23 16:58:39;;;;;;;;;;;;;;;;;;5116211;28;20352;-69
2023/01/23 17:01:05;;;;;;;;;;;;;;;;;;5117037;28;20370;-68
2023/01/23 17:03:31;;;;;;;;;;;;;;;;;;5117037;28;20333;-69
2023/01/23 17:05:57;;;;;;;;;;;;;;;;;;5117010;28;19931;-69